Terminal Aerodrome Forecast
Issued by NWS Upton, NY

Home | Current Version | Previous Version | Text Only | Print | Product List | Glossary On
Versions: 1 2 3 4 5 6 7 8 9 10 11 12 13 14 15 16 17 18 19 20 21 22 23 24 25 26 27 28 29 30 31 32 33 34 35
000
FTUS41 KOKX 100800 AAA
TAFEWR
TAF AMD
KEWR 100818Z 1008/1112 02006KT P6SM FEW060 SCT120 BKN250
     FM101600 07007KT P6SM SCT050 SCT250
     FM101900 13006KT P6SM SCT050 SCT250
     FM110100 VRB03KT P6SM FEW050 SCT150=

USA.gov is the U.S. government's official web portal to all federal, state and local government web resources and services.